UPS487 CYYZ-KSDF
Flight info
| Callsign | UPS487 |
|---|---|
| Flight time | 1h 8m |
| Altitude | 36000 |
| Route | MIXUT7 GNTRY DCT RINTE DLAMP8 |
| Aircraft | MD11/H-SDE1E2E3FGHIJ2J3J4J5M1RWXY/LB1D1 |
Departure
| Time | 2026-05-05 02:06 |
|---|---|
| Airport | Toronto Pearson International Airport (CYYZ) |
Arrival
| Time | 2026-05-05 03:15 |
|---|---|
| Airport | Louisville Muhammad Ali International Airport (KSDF) |
| Time | Latitude | Longitude | Altitude | Speed | Heading |
|---|---|---|---|---|---|
| 2026-05-05 01:15 | 43.67901 | -79.63202 | 576 ft | 0 kts | 300° |
| 2026-05-05 01:41 | 43.67892 | -79.63180 | 362 ft | 3 kts | 303° |
| 2026-05-05 01:42 | 43.67880 | -79.63158 | 357 ft | 3 kts | 311° |
| 2026-05-05 01:42 | 43.67867 | -79.63138 | 575 ft | 3 kts | 323° |
| 2026-05-05 01:42 | 43.67851 | -79.63124 | 575 ft | 3 kts | 341° |
| 2026-05-05 01:42 | 43.67835 | -79.63118 | 574 ft | 3 kts | 9° |
| 2026-05-05 01:43 | 43.67825 | -79.63120 | 574 ft | 0 kts | 25° |
| 2026-05-05 01:43 | 43.67824 | -79.63120 | 574 ft | 0 kts | 25° |
| 2026-05-05 02:00 | 43.67825 | -79.63120 | 574 ft | 0 kts | 25° |
| 2026-05-05 02:01 | 43.67855 | -79.63093 | 574 ft | 12 kts | 36° |
| 2026-05-05 02:01 | 43.67930 | -79.63000 | 575 ft | 16 kts | 43° |
| 2026-05-05 02:01 | 43.67996 | -79.62965 | 577 ft | 5 kts | 337° |
| 2026-05-05 02:01 | 43.68070 | -79.63057 | 579 ft | 23 kts | 317° |
| 2026-05-05 02:02 | 43.68196 | -79.63222 | 577 ft | 25 kts | 316° |
| 2026-05-05 02:02 | 43.68309 | -79.63371 | 575 ft | 24 kts | 316° |
| 2026-05-05 02:02 | 43.68426 | -79.63521 | 576 ft | 22 kts | 315° |
| 2026-05-05 02:02 | 43.68544 | -79.63678 | 577 ft | 26 kts | 316° |
| 2026-05-05 02:03 | 43.68678 | -79.63854 | 581 ft | 28 kts | 316° |
| 2026-05-05 02:03 | 43.68796 | -79.63978 | 582 ft | 7 kts | 359° |
| 2026-05-05 02:03 | 43.68832 | -79.63940 | 582 ft | 10 kts | 45° |
| 2026-05-05 02:03 | 43.68903 | -79.63840 | 581 ft | 19 kts | 46° |
| 2026-05-05 02:04 | 43.69011 | -79.63682 | 579 ft | 25 kts | 46° |
| 2026-05-05 02:04 | 43.69134 | -79.63507 | 574 ft | 25 kts | 45° |
| 2026-05-05 02:04 | 43.69268 | -79.63418 | 570 ft | 23 kts | 3° |
| 2026-05-05 02:04 | 43.69298 | -79.63417 | 569 ft | 0 kts | 1° |
| 2026-05-05 02:05 | 43.69333 | -79.63421 | 568 ft | 11 kts | 349° |
| 2026-05-05 02:05 | 43.69402 | -79.63492 | 565 ft | 7 kts | 298° |
| 2026-05-05 02:05 | 43.69391 | -79.63535 | 565 ft | 9 kts | 236° |
| 2026-05-05 02:05 | 43.69241 | -79.63756 | 570 ft | 72 kts | 226° |
| 2026-05-05 02:06 | 43.68685 | -79.64560 | 576 ft | 159 kts | 226° |
| 2026-05-05 02:06 | 43.67830 | -79.65784 | 1179 ft | 180 kts | 225° |
| 2026-05-05 02:06 | 43.66957 | -79.67070 | 2207 ft | 186 kts | 229° |
| 2026-05-05 02:06 | 43.66136 | -79.68553 | 3035 ft | 208 kts | 234° |
| 2026-05-05 02:07 | 43.65261 | -79.70235 | 3695 ft | 227 kts | 234° |
| 2026-05-05 02:07 | 43.64300 | -79.72124 | 4130 ft | 259 kts | 234° |
| 2026-05-05 02:07 | 43.63166 | -79.74324 | 4571 ft | 298 kts | 234° |
| 2026-05-05 02:07 | 43.61880 | -79.76788 | 5047 ft | 332 kts | 233° |
| 2026-05-05 02:08 | 43.60512 | -79.79390 | 6282 ft | 334 kts | 233° |
| 2026-05-05 02:08 | 43.58960 | -79.81709 | 7758 ft | 330 kts | 219° |
| 2026-05-05 02:08 | 43.57097 | -79.83598 | 8872 ft | 337 kts | 215° |
| 2026-05-05 02:08 | 43.55105 | -79.85465 | 9778 ft | 351 kts | 214° |
| 2026-05-05 02:09 | 43.53043 | -79.87372 | 10488 ft | 367 kts | 214° |
| 2026-05-05 02:09 | 43.50980 | -79.89326 | 11420 ft | 372 kts | 215° |
| 2026-05-05 02:09 | 43.48816 | -79.91439 | 12536 ft | 373 kts | 216° |
| 2026-05-05 02:09 | 43.46731 | -79.93556 | 13663 ft | 370 kts | 217° |
| 2026-05-05 02:10 | 43.44646 | -79.95715 | 14500 ft | 378 kts | 217° |
| 2026-05-05 02:10 | 43.42515 | -79.97918 | 15149 ft | 388 kts | 217° |
| 2026-05-05 02:10 | 43.40338 | -80.00179 | 15701 ft | 398 kts | 217° |
| 2026-05-05 02:10 | 43.38123 | -80.02483 | 16350 ft | 404 kts | 217° |
| 2026-05-05 02:11 | 43.35878 | -80.04817 | 17145 ft | 405 kts | 217° |
| 2026-05-05 02:11 | 43.33613 | -80.07172 | 17775 ft | 410 kts | 217° |
| 2026-05-05 02:11 | 43.31329 | -80.09588 | 18228 ft | 419 kts | 218° |
| 2026-05-05 02:11 | 43.29108 | -80.12131 | 18794 ft | 422 kts | 223° |
| 2026-05-05 02:12 | 43.26982 | -80.14918 | 19410 ft | 424 kts | 224° |
| 2026-05-05 02:12 | 43.22724 | -80.20640 | 20372 ft | 434 kts | 225° |
| 2026-05-05 02:12 | 43.20569 | -80.23579 | 20794 ft | 437 kts | 226° |
| 2026-05-05 02:13 | 43.18671 | -80.26836 | 21295 ft | 439 kts | 236° |
| 2026-05-05 02:13 | 43.17125 | -80.30443 | 21879 ft | 439 kts | 242° |
| 2026-05-05 02:13 | 43.15732 | -80.34182 | 22286 ft | 444 kts | 244° |
| 2026-05-05 02:13 | 43.14375 | -80.38011 | 22654 ft | 450 kts | 244° |
| 2026-05-05 02:14 | 43.13048 | -80.41928 | 23039 ft | 456 kts | 245° |
| 2026-05-05 02:14 | 43.11713 | -80.45872 | 23565 ft | 458 kts | 245° |
| 2026-05-05 02:14 | 43.10349 | -80.49831 | 23979 ft | 462 kts | 244° |
| 2026-05-05 02:14 | 43.08952 | -80.53803 | 24399 ft | 465 kts | 244° |
| 2026-05-05 02:15 | 43.07524 | -80.57792 | 24820 ft | 469 kts | 243° |
| 2026-05-05 02:15 | 43.06071 | -80.61808 | 25236 ft | 473 kts | 243° |
| 2026-05-05 02:15 | 43.04601 | -80.65846 | 25649 ft | 476 kts | 243° |
| 2026-05-05 02:15 | 43.03121 | -80.69902 | 26055 ft | 480 kts | 243° |
| 2026-05-05 02:16 | 43.01622 | -80.74001 | 26451 ft | 483 kts | 243° |
| 2026-05-05 02:16 | 43.00115 | -80.78121 | 26908 ft | 483 kts | 243° |
| 2026-05-05 02:16 | 42.98608 | -80.82236 | 27339 ft | 488 kts | 243° |
| 2026-05-05 02:16 | 42.97078 | -80.86409 | 27585 ft | 494 kts | 243° |
| 2026-05-05 02:17 | 42.95533 | -80.90615 | 27934 ft | 497 kts | 243° |
| 2026-05-05 02:17 | 42.93982 | -80.94830 | 28275 ft | 500 kts | 243° |
| 2026-05-05 02:17 | 42.92506 | -80.98626 | 29588 ft | 455 kts | 244° |
| 2026-05-05 02:17 | 42.91108 | -81.02267 | 31749 ft | 422 kts | 245° |
| 2026-05-05 02:18 | 42.89811 | -81.05809 | 32568 ft | 413 kts | 246° |
| 2026-05-05 02:18 | 42.88556 | -81.09311 | 33136 ft | 410 kts | 246° |
| 2026-05-05 02:18 | 42.87301 | -81.12792 | 33581 ft | 410 kts | 246° |
| 2026-05-05 02:18 | 42.86026 | -81.16268 | 33974 ft | 410 kts | 245° |
| 2026-05-05 02:19 | 42.84739 | -81.19740 | 34349 ft | 410 kts | 245° |
| 2026-05-05 02:19 | 42.83491 | -81.23205 | 34655 ft | 409 kts | 245° |
| 2026-05-05 02:19 | 42.82271 | -81.26643 | 34778 ft | 409 kts | 243° |
| 2026-05-05 02:19 | 42.80954 | -81.30141 | 34904 ft | 409 kts | 242° |
| 2026-05-05 02:20 | 42.79663 | -81.33525 | 35027 ft | 409 kts | 242° |
| 2026-05-05 02:20 | 42.78356 | -81.36955 | 35151 ft | 408 kts | 242° |
| 2026-05-05 02:20 | 42.77023 | -81.40371 | 35269 ft | 408 kts | 239° |
| 2026-05-05 02:21 | 42.73576 | -81.46634 | 35273 ft | 419 kts | 227° |
| 2026-05-05 02:21 | 42.69541 | -81.52462 | 35381 ft | 427 kts | 225° |
| 2026-05-05 02:22 | 42.65338 | -81.58244 | 35570 ft | 433 kts | 225° |
| 2026-05-05 02:22 | 42.63236 | -81.61173 | 35694 ft | 432 kts | 226° |
| 2026-05-05 02:22 | 42.61179 | -81.64149 | 35875 ft | 430 kts | 227° |
| 2026-05-05 02:23 | 42.57123 | -81.70112 | 35995 ft | 432 kts | 227° |
| 2026-05-05 02:23 | 42.54356 | -81.74143 | 36000 ft | 434 kts | 225° |
| 2026-05-05 02:24 | 42.51943 | -81.77161 | 36001 ft | 437 kts | 220° |
| 2026-05-05 02:25 | 42.47136 | -81.82350 | 35990 ft | 444 kts | 217° |
| 2026-05-05 02:25 | 42.42914 | -81.86754 | 36001 ft | 449 kts | 218° |
| 2026-05-05 02:27 | 42.41003 | -81.88759 | 36001 ft | 452 kts | 218° |
| 2026-05-05 02:27 | 42.40788 | -81.88985 | 36001 ft | 452 kts | 218° |
| 2026-05-05 02:28 | 42.36729 | -81.93273 | 36002 ft | 458 kts | 218° |
| 2026-05-05 02:28 | 42.31681 | -81.98629 | 36002 ft | 466 kts | 218° |
| 2026-05-05 02:29 | 42.26553 | -82.04066 | 35996 ft | 475 kts | 218° |
| 2026-05-05 02:29 | 42.21300 | -82.09622 | 36001 ft | 484 kts | 218° |
| 2026-05-05 02:30 | 42.15947 | -82.15271 | 36001 ft | 493 kts | 218° |
| 2026-05-05 02:30 | 42.10494 | -82.21012 | 36001 ft | 502 kts | 218° |
| 2026-05-05 02:31 | 42.04934 | -82.26853 | 36001 ft | 511 kts | 218° |
| 2026-05-05 02:31 | 41.99333 | -82.32723 | 36000 ft | 516 kts | 218° |
| 2026-05-05 02:32 | 41.93658 | -82.38657 | 36000 ft | 518 kts | 218° |
| 2026-05-05 02:32 | 41.87960 | -82.44597 | 36000 ft | 518 kts | 218° |
| 2026-05-05 02:33 | 41.82251 | -82.50500 | 36000 ft | 518 kts | 217° |
| 2026-05-05 02:33 | 41.76540 | -82.56408 | 36000 ft | 518 kts | 218° |
| 2026-05-05 02:34 | 41.70835 | -82.62316 | 36000 ft | 519 kts | 218° |
| 2026-05-05 02:34 | 41.65128 | -82.68216 | 36000 ft | 519 kts | 218° |
| 2026-05-05 02:35 | 41.59420 | -82.74104 | 36000 ft | 519 kts | 217° |
| 2026-05-05 02:35 | 41.53702 | -82.79986 | 36000 ft | 519 kts | 217° |
| 2026-05-05 02:36 | 41.47990 | -82.85850 | 36000 ft | 519 kts | 217° |
| 2026-05-05 02:36 | 41.42262 | -82.91716 | 36000 ft | 519 kts | 217° |
| 2026-05-05 02:37 | 41.36544 | -82.97559 | 36000 ft | 519 kts | 217° |
| 2026-05-05 02:37 | 41.30819 | -83.03395 | 36000 ft | 519 kts | 217° |
| 2026-05-05 02:38 | 41.25123 | -83.09190 | 36000 ft | 519 kts | 217° |
| 2026-05-05 02:38 | 41.19346 | -83.15031 | 36000 ft | 519 kts | 217° |
| 2026-05-05 02:39 | 41.13594 | -83.20822 | 36000 ft | 519 kts | 217° |
| 2026-05-05 02:39 | 41.07855 | -83.26610 | 36000 ft | 519 kts | 217° |
| 2026-05-05 02:40 | 41.02154 | -83.32356 | 36000 ft | 519 kts | 217° |
| 2026-05-05 02:40 | 40.96410 | -83.38134 | 36000 ft | 519 kts | 217° |
| 2026-05-05 02:41 | 40.90661 | -83.43904 | 36000 ft | 519 kts | 217° |
| 2026-05-05 02:41 | 40.84910 | -83.49662 | 36000 ft | 519 kts | 217° |
| 2026-05-05 02:42 | 40.79169 | -83.55397 | 36000 ft | 519 kts | 217° |
| 2026-05-05 02:42 | 40.73416 | -83.61132 | 36000 ft | 519 kts | 217° |
| 2026-05-05 02:43 | 40.67666 | -83.66850 | 36000 ft | 519 kts | 217° |
| 2026-05-05 02:43 | 40.62832 | -83.71647 | 36000 ft | 519 kts | 217° |
| 2026-05-05 02:44 | 40.57095 | -83.77330 | 36000 ft | 519 kts | 217° |
| 2026-05-05 02:44 | 40.51330 | -83.82997 | 36000 ft | 519 kts | 217° |
| 2026-05-05 02:45 | 40.45575 | -83.88646 | 36000 ft | 519 kts | 217° |
| 2026-05-05 02:45 | 40.39787 | -83.94335 | 36000 ft | 519 kts | 217° |
| 2026-05-05 02:46 | 40.34015 | -83.99996 | 36000 ft | 518 kts | 216° |
| 2026-05-05 02:46 | 40.27841 | -84.04862 | 36000 ft | 518 kts | 207° |
| 2026-05-05 02:47 | 40.21359 | -84.09006 | 36000 ft | 519 kts | 205° |
| 2026-05-05 02:47 | 40.14854 | -84.13114 | 36000 ft | 519 kts | 206° |
| 2026-05-05 02:48 | 40.08409 | -84.17282 | 36000 ft | 519 kts | 206° |
| 2026-05-05 02:48 | 40.01962 | -84.21489 | 36000 ft | 519 kts | 206° |
| 2026-05-05 02:49 | 39.95503 | -84.25698 | 36000 ft | 519 kts | 206° |
| 2026-05-05 02:49 | 39.89037 | -84.29897 | 36000 ft | 519 kts | 206° |
| 2026-05-05 02:50 | 39.82577 | -84.34081 | 36000 ft | 519 kts | 206° |
| 2026-05-05 02:50 | 39.76111 | -84.38260 | 36000 ft | 519 kts | 206° |
| 2026-05-05 02:51 | 39.69710 | -84.42388 | 35753 ft | 500 kts | 206° |
| 2026-05-05 02:51 | 39.66635 | -84.44368 | 35315 ft | 489 kts | 206° |
| 2026-05-05 02:51 | 39.63602 | -84.46319 | 34658 ft | 486 kts | 206° |
| 2026-05-05 02:51 | 39.60572 | -84.48267 | 33986 ft | 485 kts | 206° |
| 2026-05-05 02:52 | 39.57575 | -84.50189 | 33331 ft | 485 kts | 206° |
| 2026-05-05 02:52 | 39.54527 | -84.52133 | 32666 ft | 485 kts | 206° |
| 2026-05-05 02:52 | 39.51496 | -84.54064 | 32010 ft | 485 kts | 206° |
| 2026-05-05 02:52 | 39.48458 | -84.56001 | 31354 ft | 486 kts | 206° |
| 2026-05-05 02:53 | 39.45432 | -84.57932 | 30695 ft | 486 kts | 206° |
| 2026-05-05 02:53 | 39.42425 | -84.59851 | 30016 ft | 486 kts | 206° |
| 2026-05-05 02:53 | 39.39361 | -84.61806 | 29322 ft | 487 kts | 206° |
| 2026-05-05 02:53 | 39.36322 | -84.63744 | 28639 ft | 487 kts | 206° |
| 2026-05-05 02:54 | 39.33283 | -84.65680 | 27957 ft | 487 kts | 206° |
| 2026-05-05 02:54 | 39.30241 | -84.67616 | 27274 ft | 488 kts | 206° |
| 2026-05-05 02:54 | 39.27197 | -84.69550 | 26589 ft | 488 kts | 206° |
| 2026-05-05 02:54 | 39.24145 | -84.71489 | 25904 ft | 488 kts | 206° |
| 2026-05-05 02:55 | 39.21116 | -84.73411 | 25208 ft | 484 kts | 206° |
| 2026-05-05 02:55 | 39.18109 | -84.75316 | 24522 ft | 478 kts | 206° |
| 2026-05-05 02:55 | 39.15142 | -84.77195 | 23849 ft | 472 kts | 206° |
| 2026-05-05 02:55 | 39.12208 | -84.79052 | 23319 ft | 466 kts | 206° |
| 2026-05-05 02:56 | 39.09356 | -84.80860 | 23110 ft | 446 kts | 205° |
| 2026-05-05 02:56 | 39.06559 | -84.82633 | 22995 ft | 454 kts | 206° |
| 2026-05-05 02:56 | 39.03708 | -84.84443 | 22934 ft | 459 kts | 206° |
| 2026-05-05 02:56 | 39.00850 | -84.86260 | 22850 ft | 459 kts | 206° |
| 2026-05-05 02:57 | 38.98028 | -84.88056 | 22768 ft | 459 kts | 206° |
| 2026-05-05 02:57 | 38.95167 | -84.89878 | 22684 ft | 459 kts | 206° |
| 2026-05-05 02:57 | 38.92325 | -84.91688 | 21980 ft | 456 kts | 206° |
| 2026-05-05 02:57 | 38.89482 | -84.93497 | 21262 ft | 450 kts | 206° |
| 2026-05-05 02:58 | 38.86697 | -84.95268 | 20580 ft | 445 kts | 206° |
| 2026-05-05 02:58 | 38.83943 | -84.97018 | 19944 ft | 439 kts | 206° |
| 2026-05-05 02:58 | 38.81218 | -84.98748 | 19520 ft | 435 kts | 206° |
| 2026-05-05 02:58 | 38.78516 | -85.00461 | 19330 ft | 425 kts | 206° |
| 2026-05-05 02:59 | 38.75942 | -85.02092 | 19101 ft | 402 kts | 206° |
| 2026-05-05 02:59 | 38.73473 | -85.03655 | 18634 ft | 392 kts | 206° |
| 2026-05-05 02:59 | 38.71044 | -85.05191 | 17979 ft | 386 kts | 206° |
| 2026-05-05 02:59 | 38.68657 | -85.06701 | 17331 ft | 381 kts | 206° |
| 2026-05-05 03:00 | 38.66289 | -85.08198 | 16700 ft | 376 kts | 206° |
| 2026-05-05 03:00 | 38.63962 | -85.09671 | 16237 ft | 370 kts | 206° |
| 2026-05-05 03:00 | 38.61658 | -85.11134 | 15991 ft | 369 kts | 207° |
| 2026-05-05 03:00 | 38.59468 | -85.12817 | 15906 ft | 368 kts | 216° |
| 2026-05-05 03:01 | 38.57631 | -85.15085 | 15341 ft | 366 kts | 234° |
| 2026-05-05 03:01 | 38.56480 | -85.17945 | 14909 ft | 362 kts | 252° |
| 2026-05-05 03:01 | 38.55985 | -85.21076 | 14438 ft | 360 kts | 263° |
| 2026-05-05 03:01 | 38.55778 | -85.24262 | 13933 ft | 357 kts | 266° |
| 2026-05-05 03:02 | 38.55644 | -85.27414 | 13422 ft | 354 kts | 266° |
| 2026-05-05 03:02 | 38.55501 | -85.30529 | 13061 ft | 348 kts | 266° |
| 2026-05-05 03:02 | 38.55332 | -85.33646 | 12546 ft | 350 kts | 265° |
| 2026-05-05 03:02 | 38.55143 | -85.36723 | 11990 ft | 346 kts | 265° |
| 2026-05-05 03:03 | 38.54941 | -85.39784 | 11439 ft | 343 kts | 264° |
| 2026-05-05 03:03 | 38.54734 | -85.42798 | 11050 ft | 338 kts | 264° |
| 2026-05-05 03:03 | 38.54526 | -85.45761 | 10888 ft | 329 kts | 264° |
| 2026-05-05 03:03 | 38.54325 | -85.48598 | 10772 ft | 311 kts | 264° |
| 2026-05-05 03:04 | 38.54134 | -85.51288 | 10525 ft | 300 kts | 264° |
| 2026-05-05 03:04 | 38.53946 | -85.53919 | 10044 ft | 296 kts | 264° |
| 2026-05-05 03:04 | 38.53759 | -85.56535 | 9515 ft | 296 kts | 264° |
| 2026-05-05 03:04 | 38.53568 | -85.59156 | 8991 ft | 296 kts | 264° |
| 2026-05-05 03:05 | 38.53374 | -85.61763 | 8509 ft | 294 kts | 264° |
| 2026-05-05 03:05 | 38.53185 | -85.64304 | 8052 ft | 283 kts | 264° |
| 2026-05-05 03:05 | 38.52999 | -85.66793 | 7591 ft | 280 kts | 264° |
| 2026-05-05 03:05 | 38.52815 | -85.69252 | 7213 ft | 278 kts | 264° |
| 2026-05-05 03:06 | 38.52634 | -85.71670 | 6842 ft | 276 kts | 264° |
| 2026-05-05 03:06 | 38.52457 | -85.74100 | 6511 ft | 273 kts | 264° |
| 2026-05-05 03:06 | 38.52296 | -85.76434 | 6347 ft | 248 kts | 264° |
| 2026-05-05 03:06 | 38.52146 | -85.78535 | 6228 ft | 227 kts | 263° |
| 2026-05-05 03:07 | 38.51809 | -85.80372 | 6094 ft | 202 kts | 247° |
| 2026-05-05 03:07 | 38.51100 | -85.81834 | 5967 ft | 201 kts | 228° |
| 2026-05-05 03:07 | 38.50019 | -85.82894 | 5979 ft | 197 kts | 204° |
| 2026-05-05 03:07 | 38.48710 | -85.83433 | 6071 ft | 198 kts | 195° |
| 2026-05-05 03:08 | 38.47370 | -85.83866 | 6140 ft | 198 kts | 192° |
| 2026-05-05 03:08 | 38.45997 | -85.83834 | 6177 ft | 199 kts | 169° |
| 2026-05-05 03:08 | 38.44626 | -85.83499 | 6041 ft | 201 kts | 170° |
| 2026-05-05 03:08 | 38.43248 | -85.83103 | 5542 ft | 203 kts | 167° |
| 2026-05-05 03:09 | 38.41884 | -85.82637 | 5073 ft | 198 kts | 164° |
| 2026-05-05 03:09 | 38.40567 | -85.82137 | 4626 ft | 196 kts | 165° |
| 2026-05-05 03:09 | 38.39273 | -85.81681 | 4485 ft | 195 kts | 165° |
| 2026-05-05 03:09 | 38.37969 | -85.81229 | 4343 ft | 195 kts | 166° |
| 2026-05-05 03:10 | 38.36674 | -85.80805 | 4112 ft | 194 kts | 166° |
| 2026-05-05 03:10 | 38.35375 | -85.80381 | 3855 ft | 194 kts | 166° |
| 2026-05-05 03:10 | 38.34065 | -85.79951 | 3582 ft | 190 kts | 166° |
| 2026-05-05 03:10 | 38.32842 | -85.79543 | 3318 ft | 173 kts | 166° |
| 2026-05-05 03:11 | 38.31725 | -85.79167 | 3093 ft | 162 kts | 166° |
| 2026-05-05 03:11 | 38.30642 | -85.78801 | 2882 ft | 160 kts | 166° |
| 2026-05-05 03:11 | 38.29565 | -85.78450 | 2684 ft | 160 kts | 167° |
| 2026-05-05 03:11 | 38.28493 | -85.78104 | 2507 ft | 159 kts | 166° |
| 2026-05-05 03:12 | 38.27430 | -85.77745 | 2299 ft | 159 kts | 166° |
| 2026-05-05 03:12 | 38.26364 | -85.77398 | 2094 ft | 158 kts | 167° |
| 2026-05-05 03:12 | 38.25300 | -85.77046 | 1879 ft | 157 kts | 166° |
| 2026-05-05 03:12 | 38.24240 | -85.76710 | 1690 ft | 157 kts | 167° |
| 2026-05-05 03:13 | 38.23183 | -85.76374 | 1486 ft | 156 kts | 166° |
| 2026-05-05 03:13 | 38.22135 | -85.76018 | 1256 ft | 156 kts | 166° |
| 2026-05-05 03:13 | 38.21103 | -85.75669 | 1070 ft | 155 kts | 167° |
| 2026-05-05 03:13 | 38.20046 | -85.75316 | 830 ft | 154 kts | 167° |
| 2026-05-05 03:14 | 38.19008 | -85.74974 | 650 ft | 154 kts | 166° |
| 2026-05-05 03:14 | 38.17980 | -85.74639 | 497 ft | 144 kts | 167° |
| 2026-05-05 03:14 | 38.17132 | -85.74362 | 488 ft | 106 kts | 165° |
| 2026-05-05 03:14 | 38.16537 | -85.74168 | 495 ft | 70 kts | 166° |
| 2026-05-05 03:15 | 38.16323 | -85.74091 | 493 ft | 1 kts | 142° |
| 2026-05-05 03:15 | 38.16328 | -85.74073 | 493 ft | 5 kts | 77° |
| 2026-05-05 03:15 | 38.16363 | -85.73972 | 491 ft | 13 kts | 43° |
| 2026-05-05 03:15 | 38.16412 | -85.73963 | 491 ft | 9 kts | 346° |
| 2026-05-05 03:16 | 38.16481 | -85.73986 | 491 ft | 11 kts | 346° |
| 2026-05-05 03:16 | 38.16575 | -85.74019 | 493 ft | 17 kts | 348° |
| 2026-05-05 03:16 | 38.16739 | -85.74069 | 491 ft | 29 kts | 346° |
| 2026-05-05 03:16 | 38.16933 | -85.74134 | 490 ft | 28 kts | 346° |
| 2026-05-05 03:17 | 38.17086 | -85.74178 | 488 ft | 8 kts | 3° |
| 2026-05-05 03:17 | 38.17122 | -85.74138 | 488 ft | 10 kts | 57° |
| 2026-05-05 03:17 | 38.17137 | -85.74043 | 489 ft | 10 kts | 97° |
| 2026-05-05 03:17 | 38.17112 | -85.73949 | 491 ft | 14 kts | 110° |
| 2026-05-05 03:18 | 38.17072 | -85.73806 | 492 ft | 12 kts | 97° |
| 2026-05-05 03:18 | 38.17092 | -85.73765 | 492 ft | 5 kts | 30° |
| 2026-05-05 03:18 | 38.17106 | -85.73758 | 493 ft | 0 kts | 21° |